SCCY/GXQ METAR and TAF weather

Enter ICAO airport designator
Station Type Date Time Source
SCCY METAR 2018/12/10 03:00 UTC NOAA

SCCY 100300Z AUTO 03004KT 340V070 CAVOK 12/10 Q1005


Station Type Date Time Source
SCCY Decoded METAR 2018/12/10 03:00 UTC NOAA

Coyhaique, Chile (SCCY) 45-35S 072-07W
Dec 09, 2018 - 10:00 PM EST / 2018.12.10 0300 UTC
Wind: from the NNE (030 degrees) at 5 MPH (4 KT) (direction variable):0
Visibility: greater than 7 mile(s):0
Temperature: 53 F (12 C)
Dew Point: 50 F (10 C)
Relative Humidity: 87%
Pressure (altimeter): 29.68 in. Hg (1005 hPa)
ob: SCCY 100300Z AUTO 03004KT 340V070 CAVOK 12/10 Q1005
cycle: 3

Station Type Date Time Source
SCCY TAF 2018/12/09 12:33 UTC NOAA

TAF SCCY 091012Z 0912/0924 02005KT 9999 BKN040 TN15/0912Z TX18/0918Z
BECMG 0914/0916 26010KT
BECMG 0922/0923 8000 -SHRA BKN030


Example: see airport list